Portada
METAR-TAF:

METAR-TAF

Aeroports :

Maradi, Níger

latitud: 13-28N, longitud: 007-05E, altitud: 372 m

Observació

L'informe es va fer fa 5 hores i 54 minuts, a les 18:00 UTC
Vent 6 kt del Est/Nord-Est
Temperatura 25°C
Humitat 12%
Pressió 1014 hPa
Visibilitat 10 km o més
sense núvols per sota de 1500 mi sense presència de cumulonimbus.

METAR: DRRM 151800Z 07006KT CAVOK 25/M06 Q1014

Hora: 00:54 (23:54 UTC)


TAF: manca

Observacions i pronòstics meteorològics de més de 4000 aeroports (METAR i TAF).

Les estacions disponibles són els punts grocs i vermells al mapa.

Posi el ratolí al punt desitjat per veure el nom de l'estació.

Feu clic per veure les observacions i els pronòstics meteorològics.

Per canviar el mapa: feu clic els botons verds amb una creu de color negre per apropar; al botó verd amb un guió per allunyar la imatge; o en les fletxes verdes per a mapes adjacents.


METAR-TAF: